sensor_id;sensor_type;location;lat;lon;timestamp;temperature;humidity
46139;DHT22;32398;49.112;8.598;2023-07-13T00:02:10;25.40;49.00
46139;DHT22;32398;49.112;8.598;2023-07-13T00:04:38;25.40;49.00
46139;DHT22;32398;49.112;8.598;2023-07-13T00:07:04;25.40;49.00
46139;DHT22;32398;49.112;8.598;2023-07-13T00:09:31;25.30;48.80
46139;DHT22;32398;49.112;8.598;2023-07-13T00:11:57;25.30;48.80
46139;DHT22;32398;49.112;8.598;2023-07-13T00:14:24;25.30;48.70
46139;DHT22;32398;49.112;8.598;2023-07-13T00:16:51;25.30;48.60
46139;DHT22;32398;49.112;8.598;2023-07-13T00:19:17;25.20;48.60
46139;DHT22;32398;49.112;8.598;2023-07-13T00:21:45;25.10;48.50
46139;DHT22;32398;49.112;8.598;2023-07-13T00:24:13;25.10;48.50
46139;DHT22;32398;49.112;8.598;2023-07-13T00:26:40;25.10;48.60
46139;DHT22;32398;49.112;8.598;2023-07-13T00:29:11;25.10;48.50
46139;DHT22;32398;49.112;8.598;2023-07-13T00:31:37;25.00;48.40
46139;DHT22;32398;49.112;8.598;2023-07-13T00:34:04;25.00;48.50
46139;DHT22;32398;49.112;8.598;2023-07-13T00:36:31;25.00;48.40
46139;DHT22;32398;49.112;8.598;2023-07-13T00:38:58;24.90;48.40
46139;DHT22;32398;49.112;8.598;2023-07-13T00:41:25;24.90;48.50
46139;DHT22;32398;49.112;8.598;2023-07-13T00:43:52;24.90;48.60
46139;DHT22;32398;49.112;8.598;2023-07-13T00:46:20;24.80;48.70
46139;DHT22;32398;49.112;8.598;2023-07-13T00:48:48;24.80;48.80
46139;DHT22;32398;49.112;8.598;2023-07-13T00:51:15;24.80;48.90
46139;DHT22;32398;49.112;8.598;2023-07-13T00:53:42;24.80;49.10
46139;DHT22;32398;49.112;8.598;2023-07-13T00:56:10;24.70;49.20
46139;DHT22;32398;49.112;8.598;2023-07-13T00:58:37;24.70;49.30
46139;DHT22;32398;49.112;8.598;2023-07-13T01:01:04;24.70;49.50
46139;DHT22;32398;49.112;8.598;2023-07-13T01:03:30;24.70;49.60
46139;DHT22;32398;49.112;8.598;2023-07-13T01:05:57;24.60;49.70
46139;DHT22;32398;49.112;8.598;2023-07-13T01:08:24;24.60;49.80
46139;DHT22;32398;49.112;8.598;2023-07-13T01:10:51;24.50;49.90
46139;DHT22;32398;49.112;8.598;2023-07-13T01:13:19;24.60;50.10
46139;DHT22;32398;49.112;8.598;2023-07-13T01:15:46;24.50;50.20
46139;DHT22;32398;49.112;8.598;2023-07-13T01:18:14;24.40;50.80
46139;DHT22;32398;49.112;8.598;2023-07-13T01:20:41;24.40;50.40
46139;DHT22;32398;49.112;8.598;2023-07-13T01:23:10;24.40;50.50
46139;DHT22;32398;49.112;8.598;2023-07-13T01:25:38;24.30;50.50
46139;DHT22;32398;49.112;8.598;2023-07-13T01:28:05;24.30;50.70
46139;DHT22;32398;49.112;8.598;2023-07-13T01:30:34;24.30;50.70
46139;DHT22;32398;49.112;8.598;2023-07-13T01:33:00;24.20;51.40
46139;DHT22;32398;49.112;8.598;2023-07-13T01:35:29;24.20;50.90
46139;DHT22;32398;49.112;8.598;2023-07-13T01:37:55;24.20;51.00
46139;DHT22;32398;49.112;8.598;2023-07-13T01:40:24;24.20;51.20
46139;DHT22;32398;49.112;8.598;2023-07-13T01:42:50;24.20;51.20
46139;DHT22;32398;49.112;8.598;2023-07-13T01:45:17;24.10;51.30
46139;DHT22;32398;49.112;8.598;2023-07-13T01:47:43;24.10;51.40
46139;DHT22;32398;49.112;8.598;2023-07-13T01:50:10;24.10;51.40
46139;DHT22;32398;49.112;8.598;2023-07-13T01:52:36;24.00;51.50
46139;DHT22;32398;49.112;8.598;2023-07-13T01:55:03;24.00;51.50
46139;DHT22;32398;49.112;8.598;2023-07-13T01:57:31;24.00;51.60
46139;DHT22;32398;49.112;8.598;2023-07-13T01:59:58;24.00;51.60
46139;DHT22;32398;49.112;8.598;2023-07-13T02:02:25;23.90;51.60
46139;DHT22;32398;49.112;8.598;2023-07-13T02:04:51;23.90;51.70
46139;DHT22;32398;49.112;8.598;2023-07-13T02:07:18;23.80;51.60
46139;DHT22;32398;49.112;8.598;2023-07-13T02:09:44;23.80;51.70
46139;DHT22;32398;49.112;8.598;2023-07-13T02:12:11;23.80;51.70
46139;DHT22;32398;49.112;8.598;2023-07-13T02:14:39;23.80;51.80
46139;DHT22;32398;49.112;8.598;2023-07-13T02:17:06;23.80;51.90
46139;DHT22;32398;49.112;8.598;2023-07-13T02:19:32;23.70;51.90
46139;DHT22;32398;49.112;8.598;2023-07-13T02:21:59;23.70;51.90
46139;DHT22;32398;49.112;8.598;2023-07-13T02:24:25;23.70;51.90
46139;DHT22;32398;49.112;8.598;2023-07-13T02:26:52;23.60;51.90
46139;DHT22;32398;49.112;8.598;2023-07-13T02:29:19;23.60;52.00
46139;DHT22;32398;49.112;8.598;2023-07-13T02:31:47;23.60;52.10
46139;DHT22;32398;49.112;8.598;2023-07-13T02:34:13;23.50;52.70
46139;DHT22;32398;49.112;8.598;2023-07-13T02:36:40;23.50;52.20
46139;DHT22;32398;49.112;8.598;2023-07-13T02:39:11;23.50;52.20
46139;DHT22;32398;49.112;8.598;2023-07-13T02:41:38;23.50;52.30
46139;DHT22;32398;49.112;8.598;2023-07-13T02:44:05;23.40;52.40
46139;DHT22;32398;49.112;8.598;2023-07-13T02:46:34;23.40;52.40
46139;DHT22;32398;49.112;8.598;2023-07-13T02:49:02;23.40;52.50
46139;DHT22;32398;49.112;8.598;2023-07-13T02:51:29;23.30;52.50
46139;DHT22;32398;49.112;8.598;2023-07-13T02:53:56;23.30;52.60
46139;DHT22;32398;49.112;8.598;2023-07-13T02:56:24;23.30;52.80
46139;DHT22;32398;49.112;8.598;2023-07-13T02:58:51;23.30;52.80
46139;DHT22;32398;49.112;8.598;2023-07-13T03:01:17;23.20;52.80
46139;DHT22;32398;49.112;8.598;2023-07-13T03:03:44;23.20;53.00
46139;DHT22;32398;49.112;8.598;2023-07-13T03:06:12;23.20;53.00
46139;DHT22;32398;49.112;8.598;2023-07-13T03:08:39;23.20;53.10
46139;DHT22;32398;49.112;8.598;2023-07-13T03:11:06;23.10;53.10
46139;DHT22;32398;49.112;8.598;2023-07-13T03:13:33;23.00;53.20
46139;DHT22;32398;49.112;8.598;2023-07-13T03:16:00;23.00;53.20
46139;DHT22;32398;49.112;8.598;2023-07-13T03:18:27;23.00;53.30
46139;DHT22;32398;49.112;8.598;2023-07-13T03:20:54;23.00;53.40
46139;DHT22;32398;49.112;8.598;2023-07-13T03:23:21;22.90;53.40
46139;DHT22;32398;49.112;8.598;2023-07-13T03:25:48;22.90;53.50
46139;DHT22;32398;49.112;8.598;2023-07-13T03:28:15;22.90;53.60
46139;DHT22;32398;49.112;8.598;2023-07-13T03:30:41;22.90;53.60
46139;DHT22;32398;49.112;8.598;2023-07-13T03:33:08;22.80;53.60
46139;DHT22;32398;49.112;8.598;2023-07-13T03:35:35;22.80;53.70
46139;DHT22;32398;49.112;8.598;2023-07-13T03:38:01;22.80;53.80
46139;DHT22;32398;49.112;8.598;2023-07-13T03:40:29;22.70;53.80
46139;DHT22;32398;49.112;8.598;2023-07-13T03:42:55;22.70;53.90
46139;DHT22;32398;49.112;8.598;2023-07-13T03:45:22;22.70;53.90
46139;DHT22;32398;49.112;8.598;2023-07-13T03:47:48;22.60;53.90
46139;DHT22;32398;49.112;8.598;2023-07-13T03:50:15;22.60;54.00
46139;DHT22;32398;49.112;8.598;2023-07-13T03:52:42;22.60;54.00
46139;DHT22;32398;49.112;8.598;2023-07-13T03:55:08;22.60;54.10
46139;DHT22;32398;49.112;8.598;2023-07-13T03:57:36;22.50;54.10
46139;DHT22;32398;49.112;8.598;2023-07-13T04:00:03;22.50;54.20
46139;DHT22;32398;49.112;8.598;2023-07-13T04:02:31;22.40;54.20
46139;DHT22;32398;49.112;8.598;2023-07-13T04:04:57;22.50;54.30
46139;DHT22;32398;49.112;8.598;2023-07-13T04:07:24;22.40;54.40
46139;DHT22;32398;49.112;8.598;2023-07-13T04:09:51;22.40;54.40
46139;DHT22;32398;49.112;8.598;2023-07-13T04:12:17;22.30;54.40
46139;DHT22;32398;49.112;8.598;2023-07-13T04:14:45;22.30;54.50
46139;DHT22;32398;49.112;8.598;2023-07-13T04:17:12;22.30;54.60
46139;DHT22;32398;49.112;8.598;2023-07-13T04:19:38;22.30;54.70
46139;DHT22;32398;49.112;8.598;2023-07-13T04:22:05;22.20;54.70
46139;DHT22;32398;49.112;8.598;2023-07-13T04:24:31;22.20;54.80
46139;DHT22;32398;49.112;8.598;2023-07-13T04:26:58;22.20;54.80
46139;DHT22;32398;49.112;8.598;2023-07-13T04:29:25;22.20;54.90
46139;DHT22;32398;49.112;8.598;2023-07-13T04:31:53;22.10;54.90
46139;DHT22;32398;49.112;8.598;2023-07-13T04:34:20;22.10;55.00
46139;DHT22;32398;49.112;8.598;2023-07-13T04:36:46;22.10;55.10
46139;DHT22;32398;49.112;8.598;2023-07-13T04:39:13;22.10;55.20
46139;DHT22;32398;49.112;8.598;2023-07-13T04:41:39;22.00;55.20
46139;DHT22;32398;49.112;8.598;2023-07-13T04:44:06;22.00;55.20
46139;DHT22;32398;49.112;8.598;2023-07-13T04:46:32;22.00;55.30
46139;DHT22;32398;49.112;8.598;2023-07-13T04:49:00;22.00;55.30
46139;DHT22;32398;49.112;8.598;2023-07-13T04:51:29;21.90;55.30
46139;DHT22;32398;49.112;8.598;2023-07-13T04:53:55;21.90;55.40
46139;DHT22;32398;49.112;8.598;2023-07-13T04:56:22;21.90;55.50
46139;DHT22;32398;49.112;8.598;2023-07-13T04:58:48;21.70;56.60
46139;DHT22;32398;49.112;8.598;2023-07-13T05:01:15;21.30;58.50
46139;DHT22;32398;49.112;8.598;2023-07-13T05:03:41;21.20;58.40
46139;DHT22;32398;49.112;8.598;2023-07-13T05:06:09;21.10;58.40
46139;DHT22;32398;49.112;8.598;2023-07-13T05:08:36;21.10;58.40
46139;DHT22;32398;49.112;8.598;2023-07-13T05:11:03;21.20;58.40
46139;DHT22;32398;49.112;8.598;2023-07-13T05:13:30;21.20;58.30
46139;DHT22;32398;49.112;8.598;2023-07-13T05:15:57;21.20;58.30
46139;DHT22;32398;49.112;8.598;2023-07-13T05:18:24;21.20;58.30
46139;DHT22;32398;49.112;8.598;2023-07-13T05:20:57;21.20;58.20
46139;DHT22;32398;49.112;8.598;2023-07-13T05:23:25;21.30;58.20
46139;DHT22;32398;49.112;8.598;2023-07-13T05:25:52;21.30;58.20
46139;DHT22;32398;49.112;8.598;2023-07-13T05:28:19;21.30;58.20
46139;DHT22;32398;49.112;8.598;2023-07-13T05:30:45;21.30;58.30
46139;DHT22;32398;49.112;8.598;2023-07-13T05:33:12;21.30;58.20
46139;DHT22;32398;49.112;8.598;2023-07-13T05:35:39;21.30;58.30
46139;DHT22;32398;49.112;8.598;2023-07-13T05:38:05;21.30;58.40
46139;DHT22;32398;49.112;8.598;2023-07-13T05:40:33;21.30;58.50
46139;DHT22;32398;49.112;8.598;2023-07-13T05:43:00;21.30;58.50
46139;DHT22;32398;49.112;8.598;2023-07-13T05:45:26;21.30;58.50
46139;DHT22;32398;49.112;8.598;2023-07-13T05:47:53;21.30;58.60
46139;DHT22;32398;49.112;8.598;2023-07-13T05:50:20;21.30;58.60
46139;DHT22;32398;49.112;8.598;2023-07-13T05:52:46;21.30;58.60
46139;DHT22;32398;49.112;8.598;2023-07-13T05:55:13;21.30;58.70
46139;DHT22;32398;49.112;8.598;2023-07-13T05:57:41;21.30;58.70
46139;DHT22;32398;49.112;8.598;2023-07-13T06:00:08;21.30;58.70
46139;DHT22;32398;49.112;8.598;2023-07-13T06:02:35;21.30;58.80
46139;DHT22;32398;49.112;8.598;2023-07-13T06:05:02;21.30;58.80
46139;DHT22;32398;49.112;8.598;2023-07-13T06:07:28;21.30;58.90
46139;DHT22;32398;49.112;8.598;2023-07-13T06:09:55;21.30;58.90
46139;DHT22;32398;49.112;8.598;2023-07-13T06:12:22;21.30;58.90
46139;DHT22;32398;49.112;8.598;2023-07-13T06:14:50;21.40;59.00
46139;DHT22;32398;49.112;8.598;2023-07-13T06:17:16;21.30;58.90
46139;DHT22;32398;49.112;8.598;2023-07-13T06:19:43;21.30;59.50
46139;DHT22;32398;49.112;8.598;2023-07-13T06:22:09;21.40;58.90
46139;DHT22;32398;49.112;8.598;2023-07-13T06:24:36;21.40;58.90
46139;DHT22;32398;49.112;8.598;2023-07-13T06:27:03;21.40;58.80
46139;DHT22;32398;49.112;8.598;2023-07-13T06:29:29;21.40;58.70
46139;DHT22;32398;49.112;8.598;2023-07-13T06:31:58;21.40;58.50
46139;DHT22;32398;49.112;8.598;2023-07-13T06:34:24;21.40;58.30
46139;DHT22;32398;49.112;8.598;2023-07-13T06:36:51;21.40;58.20
46139;DHT22;32398;49.112;8.598;2023-07-13T06:39:17;21.40;58.10
46139;DHT22;32398;49.112;8.598;2023-07-13T06:41:44;21.40;57.90
46139;DHT22;32398;49.112;8.598;2023-07-13T06:44:10;21.40;57.90
46139;DHT22;32398;49.112;8.598;2023-07-13T06:46:37;21.40;57.80
46139;DHT22;32398;49.112;8.598;2023-07-13T06:49:05;21.40;57.70
46139;DHT22;32398;49.112;8.598;2023-07-13T06:51:31;21.40;57.70
46139;DHT22;32398;49.112;8.598;2023-07-13T06:53:58;21.40;57.60
46139;DHT22;32398;49.112;8.598;2023-07-13T06:56:24;21.50;57.50
46139;DHT22;32398;49.112;8.598;2023-07-13T06:58:51;21.40;57.40
46139;DHT22;32398;49.112;8.598;2023-07-13T07:01:17;21.50;57.30
46139;DHT22;32398;49.112;8.598;2023-07-13T07:03:44;21.50;57.20
46139;DHT22;32398;49.112;8.598;2023-07-13T07:06:14;21.50;57.10
46139;DHT22;32398;49.112;8.598;2023-07-13T07:08:40;21.50;57.00
46139;DHT22;32398;49.112;8.598;2023-07-13T07:11:08;21.50;57.00
46139;DHT22;32398;49.112;8.598;2023-07-13T07:13:35;21.50;57.00
46139;DHT22;32398;49.112;8.598;2023-07-13T07:16:01;21.50;56.90
46139;DHT22;32398;49.112;8.598;2023-07-13T07:18:28;21.50;56.80
46139;DHT22;32398;49.112;8.598;2023-07-13T07:20:54;21.60;56.80
46139;DHT22;32398;49.112;8.598;2023-07-13T07:23:22;21.60;56.70
46139;DHT22;32398;49.112;8.598;2023-07-13T07:25:49;21.60;56.60
46139;DHT22;32398;49.112;8.598;2023-07-13T07:28:17;21.60;56.60
46139;DHT22;32398;49.112;8.598;2023-07-13T07:30:44;21.70;56.50
46139;DHT22;32398;49.112;8.598;2023-07-13T07:33:10;21.70;56.40
46139;DHT22;32398;49.112;8.598;2023-07-13T07:35:37;21.60;56.20
46139;DHT22;32398;49.112;8.598;2023-07-13T07:38:04;21.70;56.20
46139;DHT22;32398;49.112;8.598;2023-07-13T07:40:32;21.70;56.10
46139;DHT22;32398;49.112;8.598;2023-07-13T07:43:02;21.70;56.10
46139;DHT22;32398;49.112;8.598;2023-07-13T07:45:29;21.70;56.00
46139;DHT22;32398;49.112;8.598;2023-07-13T07:47:55;21.70;55.90
46139;DHT22;32398;49.112;8.598;2023-07-13T07:50:24;21.70;55.80
46139;DHT22;32398;49.112;8.598;2023-07-13T07:52:50;21.80;55.70
46139;DHT22;32398;49.112;8.598;2023-07-13T07:55:17;21.80;55.60
46139;DHT22;32398;49.112;8.598;2023-07-13T07:57:45;21.80;55.50
46139;DHT22;32398;49.112;8.598;2023-07-13T08:00:12;21.80;55.40
46139;DHT22;32398;49.112;8.598;2023-07-13T08:02:39;21.90;55.30
46139;DHT22;32398;49.112;8.598;2023-07-13T08:05:06;21.90;55.10
46139;DHT22;32398;49.112;8.598;2023-07-13T08:07:33;21.90;55.10
46139;DHT22;32398;49.112;8.598;2023-07-13T08:10:00;21.90;55.00
46139;DHT22;32398;49.112;8.598;2023-07-13T08:12:26;21.90;55.00
46139;DHT22;32398;49.112;8.598;2023-07-13T08:14:54;21.90;54.90
46139;DHT22;32398;49.112;8.598;2023-07-13T08:17:23;22.00;54.80
46139;DHT22;32398;49.112;8.598;2023-07-13T08:19:49;22.00;54.70
46139;DHT22;32398;49.112;8.598;2023-07-13T08:22:16;22.00;54.60
46139;DHT22;32398;49.112;8.598;2023-07-13T08:24:42;22.10;54.60
46139;DHT22;32398;49.112;8.598;2023-07-13T08:27:09;22.10;54.30
46139;DHT22;32398;49.112;8.598;2023-07-13T08:29:36;22.10;54.30
46139;DHT22;32398;49.112;8.598;2023-07-13T08:32:05;22.10;54.20
46139;DHT22;32398;49.112;8.598;2023-07-13T08:34:34;22.10;53.90
46139;DHT22;32398;49.112;8.598;2023-07-13T08:37:01;22.20;53.80
46139;DHT22;32398;49.112;8.598;2023-07-13T08:39:29;22.20;53.70
46139;DHT22;32398;49.112;8.598;2023-07-13T08:41:56;22.20;53.60
46139;DHT22;32398;49.112;8.598;2023-07-13T08:44:26;22.20;53.20
46139;DHT22;32398;49.112;8.598;2023-07-13T08:46:56;22.30;53.00
46139;DHT22;32398;49.112;8.598;2023-07-13T08:49:26;22.30;53.00
46139;DHT22;32398;49.112;8.598;2023-07-13T08:51:53;22.30;53.00
46139;DHT22;32398;49.112;8.598;2023-07-13T08:54:21;22.40;52.80
46139;DHT22;32398;49.112;8.598;2023-07-13T08:56:49;22.40;52.70
46139;DHT22;32398;49.112;8.598;2023-07-13T08:59:19;22.40;52.50
46139;DHT22;32398;49.112;8.598;2023-07-13T09:01:51;22.40;52.60
46139;DHT22;32398;49.112;8.598;2023-07-13T09:04:20;22.50;52.40
46139;DHT22;32398;49.112;8.598;2023-07-13T09:06:55;22.50;52.40
46139;DHT22;32398;49.112;8.598;2023-07-13T09:09:27;22.60;52.20
46139;DHT22;32398;49.112;8.598;2023-07-13T09:12:00;22.60;52.20
46139;DHT22;32398;49.112;8.598;2023-07-13T09:14:37;22.60;51.90
46139;DHT22;32398;49.112;8.598;2023-07-13T09:17:10;22.70;51.90
46139;DHT22;32398;49.112;8.598;2023-07-13T09:19:38;22.70;51.80
46139;DHT22;32398;49.112;8.598;2023-07-13T09:22:09;22.70;51.50
46139;DHT22;32398;49.112;8.598;2023-07-13T09:24:38;22.80;51.40
46139;DHT22;32398;49.112;8.598;2023-07-13T09:27:09;22.80;51.20
46139;DHT22;32398;49.112;8.598;2023-07-13T09:29:40;22.90;51.00
46139;DHT22;32398;49.112;8.598;2023-07-13T09:32:10;22.90;50.80
46139;DHT22;32398;49.112;8.598;2023-07-13T09:34:38;23.00;50.60
46139;DHT22;32398;49.112;8.598;2023-07-13T09:37:05;23.00;50.70
46139;DHT22;32398;49.112;8.598;2023-07-13T09:39:34;23.00;50.60
46139;DHT22;32398;49.112;8.598;2023-07-13T09:42:03;23.10;50.50
46139;DHT22;32398;49.112;8.598;2023-07-13T09:44:33;23.10;50.00
46139;DHT22;32398;49.112;8.598;2023-07-13T09:47:00;23.20;49.90
46139;DHT22;32398;49.112;8.598;2023-07-13T09:49:28;23.30;49.80
46139;DHT22;32398;49.112;8.598;2023-07-13T09:51:58;23.30;49.60
46139;DHT22;32398;49.112;8.598;2023-07-13T09:54:25;23.40;49.40
46139;DHT22;32398;49.112;8.598;2023-07-13T09:56:57;23.40;49.40
46139;DHT22;32398;49.112;8.598;2023-07-13T09:59:27;23.40;49.40
46139;DHT22;32398;49.112;8.598;2023-07-13T10:01:54;23.50;49.20
46139;DHT22;32398;49.112;8.598;2023-07-13T10:04:26;23.50;48.80
46139;DHT22;32398;49.112;8.598;2023-07-13T10:06:54;23.60;48.80
46139;DHT22;32398;49.112;8.598;2023-07-13T10:09:30;23.70;48.50
46139;DHT22;32398;49.112;8.598;2023-07-13T10:11:59;23.70;48.40
46139;DHT22;32398;49.112;8.598;2023-07-13T10:14:25;23.80;48.60
46139;DHT22;32398;49.112;8.598;2023-07-13T10:16:53;23.80;48.40
46139;DHT22;32398;49.112;8.598;2023-07-13T10:19:22;23.90;48.30
46139;DHT22;32398;49.112;8.598;2023-07-13T10:21:53;24.00;48.40
46139;DHT22;32398;49.112;8.598;2023-07-13T10:24:22;24.00;48.40
46139;DHT22;32398;49.112;8.598;2023-07-13T10:26:51;24.00;48.20
46139;DHT22;32398;49.112;8.598;2023-07-13T10:29:22;24.10;48.10
46139;DHT22;32398;49.112;8.598;2023-07-13T10:31:50;24.20;48.00
46139;DHT22;32398;49.112;8.598;2023-07-13T10:34:16;24.20;48.00
46139;DHT22;32398;49.112;8.598;2023-07-13T10:36:43;24.30;47.80
46139;DHT22;32398;49.112;8.598;2023-07-13T10:39:13;24.30;47.80
46139;DHT22;32398;49.112;8.598;2023-07-13T10:41:42;24.30;47.40
46139;DHT22;32398;49.112;8.598;2023-07-13T10:44:14;24.50;47.10
46139;DHT22;32398;49.112;8.598;2023-07-13T10:46:43;24.50;46.80
46139;DHT22;32398;49.112;8.598;2023-07-13T10:49:10;24.60;46.80
46139;DHT22;32398;49.112;8.598;2023-07-13T10:51:37;24.70;47.00
46139;DHT22;32398;49.112;8.598;2023-07-13T10:54:11;24.70;46.90
46139;DHT22;32398;49.112;8.598;2023-07-13T10:56:42;24.70;46.40
46139;DHT22;32398;49.112;8.598;2023-07-13T10:59:10;24.80;47.00
46139;DHT22;32398;49.112;8.598;2023-07-13T11:01:41;24.90;46.40
46139;DHT22;32398;49.112;8.598;2023-07-13T11:04:21;24.90;46.60
46139;DHT22;32398;49.112;8.598;2023-07-13T11:06:50;25.00;46.60
46139;DHT22;32398;49.112;8.598;2023-07-13T11:09:18;25.10;45.90
46139;DHT22;32398;49.112;8.598;2023-07-13T11:11:45;25.10;46.00
46139;DHT22;32398;49.112;8.598;2023-07-13T11:16:56;25.20;45.80
46139;DHT22;32398;49.112;8.598;2023-07-13T11:19:40;25.20;45.80
46139;DHT22;32398;49.112;8.598;2023-07-13T11:22:15;25.20;45.70
46139;DHT22;32398;49.112;8.598;2023-07-13T11:27:39;25.30;45.40
46139;DHT22;32398;49.112;8.598;2023-07-13T11:33:09;25.40;46.00
46139;DHT22;32398;49.112;8.598;2023-07-13T11:35:41;25.40;45.70
46139;DHT22;32398;49.112;8.598;2023-07-13T11:38:12;25.50;46.20
46139;DHT22;32398;49.112;8.598;2023-07-13T11:40:39;25.50;45.50
46139;DHT22;32398;49.112;8.598;2023-07-13T11:43:07;25.50;45.20
46139;DHT22;32398;49.112;8.598;2023-07-13T11:45:33;25.50;45.30
46139;DHT22;32398;49.112;8.598;2023-07-13T11:48:01;25.60;45.50
46139;DHT22;32398;49.112;8.598;2023-07-13T11:50:27;25.60;45.60
46139;DHT22;32398;49.112;8.598;2023-07-13T11:52:57;25.60;45.20
46139;DHT22;32398;49.112;8.598;2023-07-13T11:55:25;25.60;45.50
46139;DHT22;32398;49.112;8.598;2023-07-13T11:57:54;25.70;45.30
46139;DHT22;32398;49.112;8.598;2023-07-13T12:00:25;25.70;45.20
46139;DHT22;32398;49.112;8.598;2023-07-13T12:02:53;25.80;45.50
46139;DHT22;32398;49.112;8.598;2023-07-13T12:05:20;25.90;44.90
46139;DHT22;32398;49.112;8.598;2023-07-13T12:07:47;25.90;44.50
46139;DHT22;32398;49.112;8.598;2023-07-13T12:10:18;26.00;45.10
46139;DHT22;32398;49.112;8.598;2023-07-13T12:12:46;26.00;44.80
46139;DHT22;32398;49.112;8.598;2023-07-13T12:15:13;26.10;45.10
46139;DHT22;32398;49.112;8.598;2023-07-13T12:17:40;26.10;44.70
46139;DHT22;32398;49.112;8.598;2023-07-13T12:20:11;26.10;44.10
46139;DHT22;32398;49.112;8.598;2023-07-13T12:22:45;26.10;44.50
46139;DHT22;32398;49.112;8.598;2023-07-13T12:25:11;26.10;44.60
46139;DHT22;32398;49.112;8.598;2023-07-13T12:27:40;26.20;44.50
46139;DHT22;32398;49.112;8.598;2023-07-13T12:30:24;26.20;44.40
46139;DHT22;32398;49.112;8.598;2023-07-13T12:32:58;26.20;44.40
46139;DHT22;32398;49.112;8.598;2023-07-13T12:35:26;26.20;45.00
46139;DHT22;32398;49.112;8.598;2023-07-13T12:37:56;26.30;44.50
46139;DHT22;32398;49.112;8.598;2023-07-13T12:40:28;26.30;44.60
46139;DHT22;32398;49.112;8.598;2023-07-13T12:42:59;26.30;45.90
46139;DHT22;32398;49.112;8.598;2023-07-13T12:45:29;26.30;45.00
46139;DHT22;32398;49.112;8.598;2023-07-13T12:47:57;26.30;45.00
46139;DHT22;32398;49.112;8.598;2023-07-13T12:50:28;26.30;44.90
46139;DHT22;32398;49.112;8.598;2023-07-13T12:52:56;26.30;45.10
46139;DHT22;32398;49.112;8.598;2023-07-13T12:55:26;26.20;44.60
46139;DHT22;32398;49.112;8.598;2023-07-13T12:57:59;26.30;45.00
46139;DHT22;32398;49.112;8.598;2023-07-13T13:00:27;26.30;45.10
46139;DHT22;32398;49.112;8.598;2023-07-13T13:02:54;26.30;44.30
46139;DHT22;32398;49.112;8.598;2023-07-13T13:05:22;26.30;43.70
46139;DHT22;32398;49.112;8.598;2023-07-13T13:07:49;26.40;43.50
46139;DHT22;32398;49.112;8.598;2023-07-13T13:10:16;26.40;43.50
46139;DHT22;32398;49.112;8.598;2023-07-13T13:12:42;26.50;43.70
46139;DHT22;32398;49.112;8.598;2023-07-13T13:15:10;26.50;42.90
46139;DHT22;32398;49.112;8.598;2023-07-13T13:17:37;26.60;43.00
46139;DHT22;32398;49.112;8.598;2023-07-13T13:20:05;26.60;42.70
46139;DHT22;32398;49.112;8.598;2023-07-13T13:22:37;26.70;43.40
46139;DHT22;32398;49.112;8.598;2023-07-13T13:25:04;26.70;42.60
46139;DHT22;32398;49.112;8.598;2023-07-13T13:27:31;26.70;42.10
46139;DHT22;32398;49.112;8.598;2023-07-13T13:29:57;26.70;41.90
46139;DHT22;32398;49.112;8.598;2023-07-13T13:32:25;26.80;41.60
46139;DHT22;32398;49.112;8.598;2023-07-13T13:34:52;26.80;41.30
46139;DHT22;32398;49.112;8.598;2023-07-13T13:37:20;26.80;41.90
46139;DHT22;32398;49.112;8.598;2023-07-13T13:39:46;26.80;42.90
46139;DHT22;32398;49.112;8.598;2023-07-13T13:42:13;26.80;42.60
46139;DHT22;32398;49.112;8.598;2023-07-13T13:44:40;26.80;41.20
46139;DHT22;32398;49.112;8.598;2023-07-13T13:47:12;26.80;40.90
46139;DHT22;32398;49.112;8.598;2023-07-13T13:49:45;26.80;40.90
46139;DHT22;32398;49.112;8.598;2023-07-13T13:52:12;26.80;41.50
46139;DHT22;32398;49.112;8.598;2023-07-13T13:54:39;26.90;41.20
46139;DHT22;32398;49.112;8.598;2023-07-13T13:57:05;26.90;41.60
46139;DHT22;32398;49.112;8.598;2023-07-13T13:59:32;27.00;42.30
46139;DHT22;32398;49.112;8.598;2023-07-13T14:02:07;27.00;42.20
46139;DHT22;32398;49.112;8.598;2023-07-13T14:04:41;27.10;41.80
46139;DHT22;32398;49.112;8.598;2023-07-13T14:07:09;27.10;41.90
46139;DHT22;32398;49.112;8.598;2023-07-13T14:09:36;27.20;41.10
46139;DHT22;32398;49.112;8.598;2023-07-13T14:12:04;27.20;40.80
46139;DHT22;32398;49.112;8.598;2023-07-13T14:14:31;27.30;41.80
46139;DHT22;32398;49.112;8.598;2023-07-13T14:16:58;27.40;41.80
46139;DHT22;32398;49.112;8.598;2023-07-13T14:19:25;27.40;40.30
46139;DHT22;32398;49.112;8.598;2023-07-13T14:21:52;27.50;40.70
46139;DHT22;32398;49.112;8.598;2023-07-13T14:24:20;27.60;40.00
46139;DHT22;32398;49.112;8.598;2023-07-13T14:26:46;27.60;39.50
46139;DHT22;32398;49.112;8.598;2023-07-13T14:29:14;27.70;40.10
46139;DHT22;32398;49.112;8.598;2023-07-13T14:31:41;27.70;40.90
46139;DHT22;32398;49.112;8.598;2023-07-13T14:34:09;27.80;41.70
46139;DHT22;32398;49.112;8.598;2023-07-13T14:36:36;27.80;41.60
46139;DHT22;32398;49.112;8.598;2023-07-13T14:39:08;27.80;41.60
46139;DHT22;32398;49.112;8.598;2023-07-13T14:41:37;27.90;41.20
46139;DHT22;32398;49.112;8.598;2023-07-13T14:44:07;27.90;40.40
46139;DHT22;32398;49.112;8.598;2023-07-13T14:46:34;27.90;40.80
46139;DHT22;32398;49.112;8.598;2023-07-13T14:49:02;28.00;39.70
46139;DHT22;32398;49.112;8.598;2023-07-13T14:51:29;27.90;40.90
46139;DHT22;32398;49.112;8.598;2023-07-13T14:53:56;28.00;41.60
46139;DHT22;32398;49.112;8.598;2023-07-13T14:56:22;28.00;41.30
46139;DHT22;32398;49.112;8.598;2023-07-13T14:58:50;28.00;40.60
46139;DHT22;32398;49.112;8.598;2023-07-13T15:01:18;28.00;39.60
46139;DHT22;32398;49.112;8.598;2023-07-13T15:03:46;28.00;40.30
46139;DHT22;32398;49.112;8.598;2023-07-13T15:06:13;28.00;39.60
46139;DHT22;32398;49.112;8.598;2023-07-13T15:08:40;28.00;40.30
46139;DHT22;32398;49.112;8.598;2023-07-13T15:11:07;28.10;40.20
46139;DHT22;32398;49.112;8.598;2023-07-13T15:13:33;28.10;40.10
46139;DHT22;32398;49.112;8.598;2023-07-13T15:16:01;28.10;40.60
46139;DHT22;32398;49.112;8.598;2023-07-13T15:18:28;28.20;36.30
46139;DHT22;32398;49.112;8.598;2023-07-13T15:20:55;28.50;36.60
46139;DHT22;32398;49.112;8.598;2023-07-13T15:23:23;28.60;37.10
46139;DHT22;32398;49.112;8.598;2023-07-13T15:25:51;28.80;37.40
46139;DHT22;32398;49.112;8.598;2023-07-13T15:28:18;29.00;37.60
46139;DHT22;32398;49.112;8.598;2023-07-13T15:30:48;29.10;37.20
46139;DHT22;32398;49.112;8.598;2023-07-13T15:33:17;29.20;37.00
46139;DHT22;32398;49.112;8.598;2023-07-13T15:35:45;29.40;37.00
46139;DHT22;32398;49.112;8.598;2023-07-13T15:38:14;29.40;36.80
46139;DHT22;32398;49.112;8.598;2023-07-13T15:40:41;29.50;36.80
46139;DHT22;32398;49.112;8.598;2023-07-13T15:43:10;29.60;36.70